sensor_id;sensor_type;location;lat;lon;timestamp;temperature;humidity
9699;DHT22;10089;47.876;8.346;2022-11-13T00:00:54;2.90;99.90
9699;DHT22;10089;47.876;8.346;2022-11-13T00:03:20;2.90;99.90
9699;DHT22;10089;47.876;8.346;2022-11-13T00:05:45;2.90;99.90
9699;DHT22;10089;47.876;8.346;2022-11-13T00:08:11;2.80;99.90
9699;DHT22;10089;47.876;8.346;2022-11-13T00:10:37;2.80;99.90
9699;DHT22;10089;47.876;8.346;2022-11-13T00:13:02;2.70;99.90
9699;DHT22;10089;47.876;8.346;2022-11-13T00:15:28;2.80;99.90
9699;DHT22;10089;47.876;8.346;2022-11-13T00:17:53;2.70;99.90
9699;DHT22;10089;47.876;8.346;2022-11-13T00:20:19;2.70;99.90
9699;DHT22;10089;47.876;8.346;2022-11-13T00:22:45;2.80;99.90
9699;DHT22;10089;47.876;8.346;2022-11-13T00:25:10;2.70;99.90
9699;DHT22;10089;47.876;8.346;2022-11-13T00:27:36;2.70;99.90
9699;DHT22;10089;47.876;8.346;2022-11-13T00:30:02;2.70;99.90
9699;DHT22;10089;47.876;8.346;2022-11-13T00:32:28;2.70;99.90
9699;DHT22;10089;47.876;8.346;2022-11-13T00:34:53;2.70;99.90
9699;DHT22;10089;47.876;8.346;2022-11-13T00:37:19;2.70;99.90
9699;DHT22;10089;47.876;8.346;2022-11-13T00:39:44;2.60;99.90
9699;DHT22;10089;47.876;8.346;2022-11-13T00:42:09;2.60;99.90
9699;DHT22;10089;47.876;8.346;2022-11-13T00:44:35;2.60;99.90
9699;DHT22;10089;47.876;8.346;2022-11-13T00:47:01;2.60;99.90
9699;DHT22;10089;47.876;8.346;2022-11-13T00:49:26;2.70;99.90
9699;DHT22;10089;47.876;8.346;2022-11-13T00:51:51;2.60;99.90
9699;DHT22;10089;47.876;8.346;2022-11-13T00:54:17;2.70;99.90
9699;DHT22;10089;47.876;8.346;2022-11-13T00:56:43;2.60;99.90
9699;DHT22;10089;47.876;8.346;2022-11-13T00:59:08;2.60;99.90
9699;DHT22;10089;47.876;8.346;2022-11-13T01:01:34;2.50;99.90
9699;DHT22;10089;47.876;8.346;2022-11-13T01:03:59;2.50;99.90
9699;DHT22;10089;47.876;8.346;2022-11-13T01:06:25;2.50;99.90
9699;DHT22;10089;47.876;8.346;2022-11-13T01:08:55;2.40;99.90
9699;DHT22;10089;47.876;8.346;2022-11-13T01:11:22;2.40;99.90
9699;DHT22;10089;47.876;8.346;2022-11-13T01:13:49;2.40;99.90
9699;DHT22;10089;47.876;8.346;2022-11-13T01:16:15;2.50;99.90
9699;DHT22;10089;47.876;8.346;2022-11-13T01:18:41;2.40;99.90
9699;DHT22;10089;47.876;8.346;2022-11-13T01:21:17;2.30;99.90
9699;DHT22;10089;47.876;8.346;2022-11-13T01:23:43;2.30;99.90
9699;DHT22;10089;47.876;8.346;2022-11-13T01:26:19;2.40;99.90
9699;DHT22;10089;47.876;8.346;2022-11-13T01:28:46;2.30;99.90
9699;DHT22;10089;47.876;8.346;2022-11-13T01:31:19;2.30;99.90
9699;DHT22;10089;47.876;8.346;2022-11-13T01:33:45;2.30;99.90
9699;DHT22;10089;47.876;8.346;2022-11-13T01:36:15;2.30;99.90
9699;DHT22;10089;47.876;8.346;2022-11-13T01:38:41;2.30;99.90
9699;DHT22;10089;47.876;8.346;2022-11-13T01:41:06;2.50;99.90
9699;DHT22;10089;47.876;8.346;2022-11-13T01:43:33;2.30;99.90
9699;DHT22;10089;47.876;8.346;2022-11-13T01:46:08;2.30;99.90
9699;DHT22;10089;47.876;8.346;2022-11-13T01:48:37;2.30;99.90
9699;DHT22;10089;47.876;8.346;2022-11-13T01:51:11;2.30;99.90
9699;DHT22;10089;47.876;8.346;2022-11-13T01:53:38;2.30;99.90
9699;DHT22;10089;47.876;8.346;2022-11-13T01:56:05;2.30;99.90
9699;DHT22;10089;47.876;8.346;2022-11-13T01:58:30;2.30;99.90
9699;DHT22;10089;47.876;8.346;2022-11-13T02:00:56;2.30;99.90
9699;DHT22;10089;47.876;8.346;2022-11-13T02:03:22;2.20;99.90
9699;DHT22;10089;47.876;8.346;2022-11-13T02:05:47;2.40;99.90
9699;DHT22;10089;47.876;8.346;2022-11-13T02:08:12;2.60;99.90
9699;DHT22;10089;47.876;8.346;2022-11-13T02:10:38;2.20;99.90
9699;DHT22;10089;47.876;8.346;2022-11-13T02:13:03;2.20;99.90
9699;DHT22;10089;47.876;8.346;2022-11-13T02:15:30;2.20;99.90
9699;DHT22;10089;47.876;8.346;2022-11-13T02:17:58;2.10;99.90
9699;DHT22;10089;47.876;8.346;2022-11-13T02:23:30;2.00;99.90
9699;DHT22;10089;47.876;8.346;2022-11-13T02:25:58;2.10;99.90
9699;DHT22;10089;47.876;8.346;2022-11-13T02:28:24;2.10;99.90
9699;DHT22;10089;47.876;8.346;2022-11-13T02:30:50;2.20;99.90
9699;DHT22;10089;47.876;8.346;2022-11-13T02:33:23;2.20;99.90
9699;DHT22;10089;47.876;8.346;2022-11-13T02:35:49;2.20;99.90
9699;DHT22;10089;47.876;8.346;2022-11-13T02:38:15;2.10;99.90
9699;DHT22;10089;47.876;8.346;2022-11-13T02:40:41;2.20;99.90
9699;DHT22;10089;47.876;8.346;2022-11-13T02:43:06;2.10;99.90
9699;DHT22;10089;47.876;8.346;2022-11-13T02:45:32;2.10;99.90
9699;DHT22;10089;47.876;8.346;2022-11-13T02:48:00;2.00;99.90
9699;DHT22;10089;47.876;8.346;2022-11-13T02:50:26;2.10;99.90
9699;DHT22;10089;47.876;8.346;2022-11-13T02:52:52;2.00;99.90
9699;DHT22;10089;47.876;8.346;2022-11-13T02:55:17;2.10;99.90
9699;DHT22;10089;47.876;8.346;2022-11-13T02:57:43;2.00;99.90
9699;DHT22;10089;47.876;8.346;2022-11-13T03:00:09;2.00;99.90
9699;DHT22;10089;47.876;8.346;2022-11-13T03:02:34;2.00;99.90
9699;DHT22;10089;47.876;8.346;2022-11-13T03:05:00;2.10;99.90
9699;DHT22;10089;47.876;8.346;2022-11-13T03:07:25;2.20;99.90
9699;DHT22;10089;47.876;8.346;2022-11-13T03:09:51;2.20;99.90
9699;DHT22;10089;47.876;8.346;2022-11-13T03:12:16;2.20;99.90
9699;DHT22;10089;47.876;8.346;2022-11-13T03:14:42;2.20;99.90
9699;DHT22;10089;47.876;8.346;2022-11-13T03:17:08;2.20;99.90
9699;DHT22;10089;47.876;8.346;2022-11-13T03:19:33;2.20;99.90
9699;DHT22;10089;47.876;8.346;2022-11-13T03:21:59;2.10;99.90
9699;DHT22;10089;47.876;8.346;2022-11-13T03:24:24;2.00;99.90
9699;DHT22;10089;47.876;8.346;2022-11-13T03:26:50;1.90;99.90
9699;DHT22;10089;47.876;8.346;2022-11-13T03:29:15;1.90;99.90
9699;DHT22;10089;47.876;8.346;2022-11-13T03:31:41;1.80;99.90
9699;DHT22;10089;47.876;8.346;2022-11-13T03:34:06;1.80;99.90
9699;DHT22;10089;47.876;8.346;2022-11-13T03:36:32;1.90;99.90
9699;DHT22;10089;47.876;8.346;2022-11-13T03:38:57;1.80;99.90
9699;DHT22;10089;47.876;8.346;2022-11-13T03:41:23;1.80;99.90
9699;DHT22;10089;47.876;8.346;2022-11-13T03:43:49;1.90;99.90
9699;DHT22;10089;47.876;8.346;2022-11-13T03:46:14;1.80;99.90
9699;DHT22;10089;47.876;8.346;2022-11-13T03:48:40;1.80;99.90
9699;DHT22;10089;47.876;8.346;2022-11-13T03:51:06;1.70;99.90
9699;DHT22;10089;47.876;8.346;2022-11-13T03:53:31;1.70;99.90
9699;DHT22;10089;47.876;8.346;2022-11-13T03:55:57;1.70;99.90
9699;DHT22;10089;47.876;8.346;2022-11-13T03:58:23;1.80;99.90
9699;DHT22;10089;47.876;8.346;2022-11-13T04:00:48;1.80;99.90
9699;DHT22;10089;47.876;8.346;2022-11-13T04:03:14;1.70;99.90
9699;DHT22;10089;47.876;8.346;2022-11-13T04:05:40;1.70;99.90
9699;DHT22;10089;47.876;8.346;2022-11-13T04:08:06;1.60;99.90
9699;DHT22;10089;47.876;8.346;2022-11-13T04:10:32;1.70;99.90
9699;DHT22;10089;47.876;8.346;2022-11-13T04:12:58;1.70;99.90
9699;DHT22;10089;47.876;8.346;2022-11-13T04:15:23;1.70;99.90
9699;DHT22;10089;47.876;8.346;2022-11-13T04:17:49;1.60;99.90
9699;DHT22;10089;47.876;8.346;2022-11-13T04:20:15;1.50;99.90
9699;DHT22;10089;47.876;8.346;2022-11-13T04:22:41;1.60;99.90
9699;DHT22;10089;47.876;8.346;2022-11-13T04:25:06;1.50;99.90
9699;DHT22;10089;47.876;8.346;2022-11-13T04:27:32;1.30;99.90
9699;DHT22;10089;47.876;8.346;2022-11-13T04:29:57;1.40;99.90
9699;DHT22;10089;47.876;8.346;2022-11-13T04:32:23;1.40;99.90
9699;DHT22;10089;47.876;8.346;2022-11-13T04:34:48;1.20;99.90
9699;DHT22;10089;47.876;8.346;2022-11-13T04:37:14;1.20;99.90
9699;DHT22;10089;47.876;8.346;2022-11-13T04:39:40;1.10;99.90
9699;DHT22;10089;47.876;8.346;2022-11-13T04:42:05;1.10;99.90
9699;DHT22;10089;47.876;8.346;2022-11-13T04:44:49;1.20;99.90
9699;DHT22;10089;47.876;8.346;2022-11-13T04:47:15;1.20;99.90
9699;DHT22;10089;47.876;8.346;2022-11-13T04:49:40;1.30;99.90
9699;DHT22;10089;47.876;8.346;2022-11-13T04:52:06;1.30;99.90
9699;DHT22;10089;47.876;8.346;2022-11-13T04:54:32;1.20;99.90
9699;DHT22;10089;47.876;8.346;2022-11-13T04:56:57;1.30;99.90
9699;DHT22;10089;47.876;8.346;2022-11-13T04:59:23;1.30;99.90
9699;DHT22;10089;47.876;8.346;2022-11-13T05:01:48;1.30;99.90
9699;DHT22;10089;47.876;8.346;2022-11-13T05:04:14;1.30;99.90
9699;DHT22;10089;47.876;8.346;2022-11-13T05:06:40;1.30;99.90
9699;DHT22;10089;47.876;8.346;2022-11-13T05:09:05;1.20;99.90
9699;DHT22;10089;47.876;8.346;2022-11-13T05:11:33;1.30;99.90
9699;DHT22;10089;47.876;8.346;2022-11-13T05:13:58;1.20;99.90
9699;DHT22;10089;47.876;8.346;2022-11-13T05:16:24;1.20;99.90
9699;DHT22;10089;47.876;8.346;2022-11-13T05:18:50;1.20;99.90
9699;DHT22;10089;47.876;8.346;2022-11-13T05:21:15;1.20;99.90
9699;DHT22;10089;47.876;8.346;2022-11-13T05:23:41;1.20;99.90
9699;DHT22;10089;47.876;8.346;2022-11-13T05:26:08;1.20;99.90
9699;DHT22;10089;47.876;8.346;2022-11-13T05:28:33;1.10;99.90
9699;DHT22;10089;47.876;8.346;2022-11-13T05:31:03;1.10;99.90
9699;DHT22;10089;47.876;8.346;2022-11-13T05:33:29;1.10;99.90
9699;DHT22;10089;47.876;8.346;2022-11-13T05:35:54;0.90;99.90
9699;DHT22;10089;47.876;8.346;2022-11-13T05:38:24;0.90;99.90
9699;DHT22;10089;47.876;8.346;2022-11-13T05:40:50;0.80;99.90
9699;DHT22;10089;47.876;8.346;2022-11-13T05:43:15;0.80;99.90
9699;DHT22;10089;47.876;8.346;2022-11-13T05:45:41;0.80;99.90
9699;DHT22;10089;47.876;8.346;2022-11-13T05:48:07;0.80;99.90
9699;DHT22;10089;47.876;8.346;2022-11-13T05:50:32;0.80;99.90
9699;DHT22;10089;47.876;8.346;2022-11-13T05:52:58;0.80;99.90
9699;DHT22;10089;47.876;8.346;2022-11-13T05:55:23;0.70;99.90
9699;DHT22;10089;47.876;8.346;2022-11-13T05:57:49;0.60;99.90
9699;DHT22;10089;47.876;8.346;2022-11-13T06:00:14;0.70;99.90
9699;DHT22;10089;47.876;8.346;2022-11-13T06:02:40;0.80;99.90
9699;DHT22;10089;47.876;8.346;2022-11-13T06:05:06;0.80;99.90
9699;DHT22;10089;47.876;8.346;2022-11-13T06:07:31;0.80;99.90
9699;DHT22;10089;47.876;8.346;2022-11-13T06:09:57;0.90;99.90
9699;DHT22;10089;47.876;8.346;2022-11-13T06:12:23;0.90;99.90
9699;DHT22;10089;47.876;8.346;2022-11-13T06:14:48;0.80;99.90
9699;DHT22;10089;47.876;8.346;2022-11-13T06:17:14;0.80;99.90
9699;DHT22;10089;47.876;8.346;2022-11-13T06:19:39;0.70;99.90
9699;DHT22;10089;47.876;8.346;2022-11-13T06:22:05;0.70;99.90
9699;DHT22;10089;47.876;8.346;2022-11-13T06:24:30;0.70;99.90
9699;DHT22;10089;47.876;8.346;2022-11-13T06:26:56;0.60;99.90
9699;DHT22;10089;47.876;8.346;2022-11-13T06:29:25;0.70;99.90
9699;DHT22;10089;47.876;8.346;2022-11-13T06:31:51;0.70;99.90
9699;DHT22;10089;47.876;8.346;2022-11-13T06:34:19;0.60;99.90
9699;DHT22;10089;47.876;8.346;2022-11-13T06:36:45;0.70;99.90
9699;DHT22;10089;47.876;8.346;2022-11-13T06:39:10;0.70;99.90
9699;DHT22;10089;47.876;8.346;2022-11-13T06:41:36;0.70;99.90
9699;DHT22;10089;47.876;8.346;2022-11-13T06:44:02;1.30;99.90
9699;DHT22;10089;47.876;8.346;2022-11-13T06:46:28;1.60;99.90
9699;DHT22;10089;47.876;8.346;2022-11-13T06:48:54;1.90;99.90
9699;DHT22;10089;47.876;8.346;2022-11-13T06:51:25;2.00;99.90
9699;DHT22;10089;47.876;8.346;2022-11-13T06:53:51;2.10;99.90
9699;DHT22;10089;47.876;8.346;2022-11-13T06:56:17;1.80;99.90
9699;DHT22;10089;47.876;8.346;2022-11-13T06:58:42;1.60;99.90
9699;DHT22;10089;47.876;8.346;2022-11-13T07:01:09;1.40;99.90
9699;DHT22;10089;47.876;8.346;2022-11-13T07:03:35;1.20;99.90
9699;DHT22;10089;47.876;8.346;2022-11-13T07:06:04;1.10;99.90
9699;DHT22;10089;47.876;8.346;2022-11-13T07:08:30;1.10;99.90
9699;DHT22;10089;47.876;8.346;2022-11-13T07:10:56;0.90;99.90
9699;DHT22;10089;47.876;8.346;2022-11-13T07:13:22;0.70;99.90
9699;DHT22;10089;47.876;8.346;2022-11-13T07:15:48;0.80;99.90
9699;DHT22;10089;47.876;8.346;2022-11-13T07:18:13;0.70;99.90
9699;DHT22;10089;47.876;8.346;2022-11-13T07:20:39;0.70;99.90
9699;DHT22;10089;47.876;8.346;2022-11-13T07:23:05;0.70;99.90
9699;DHT22;10089;47.876;8.346;2022-11-13T07:25:30;0.50;99.90
9699;DHT22;10089;47.876;8.346;2022-11-13T07:27:57;0.30;99.90
9699;DHT22;10089;47.876;8.346;2022-11-13T07:30:23;0.50;99.90
9699;DHT22;10089;47.876;8.346;2022-11-13T07:32:49;0.50;99.90
9699;DHT22;10089;47.876;8.346;2022-11-13T07:35:15;0.60;99.90
9699;DHT22;10089;47.876;8.346;2022-11-13T07:37:41;0.60;99.90
9699;DHT22;10089;47.876;8.346;2022-11-13T07:40:07;0.60;99.90
9699;DHT22;10089;47.876;8.346;2022-11-13T07:42:33;0.70;99.90
9699;DHT22;10089;47.876;8.346;2022-11-13T07:44:58;0.50;99.90
9699;DHT22;10089;47.876;8.346;2022-11-13T07:47:24;0.80;99.90
9699;DHT22;10089;47.876;8.346;2022-11-13T07:49:49;0.60;99.90
9699;DHT22;10089;47.876;8.346;2022-11-13T07:52:15;0.80;99.90
9699;DHT22;10089;47.876;8.346;2022-11-13T07:54:41;0.70;99.90
9699;DHT22;10089;47.876;8.346;2022-11-13T07:57:06;0.80;99.90
9699;DHT22;10089;47.876;8.346;2022-11-13T07:59:32;0.70;99.90
9699;DHT22;10089;47.876;8.346;2022-11-13T08:01:58;0.90;99.90
9699;DHT22;10089;47.876;8.346;2022-11-13T08:04:23;0.90;99.90
9699;DHT22;10089;47.876;8.346;2022-11-13T08:06:49;0.70;99.90
9699;DHT22;10089;47.876;8.346;2022-11-13T08:09:14;0.80;99.90
9699;DHT22;10089;47.876;8.346;2022-11-13T08:11:40;0.90;99.90
9699;DHT22;10089;47.876;8.346;2022-11-13T08:14:05;0.90;99.90
9699;DHT22;10089;47.876;8.346;2022-11-13T08:16:31;1.00;99.90
9699;DHT22;10089;47.876;8.346;2022-11-13T08:18:56;1.10;99.90
9699;DHT22;10089;47.876;8.346;2022-11-13T08:21:22;1.30;99.90
9699;DHT22;10089;47.876;8.346;2022-11-13T08:23:48;1.40;99.90
9699;DHT22;10089;47.876;8.346;2022-11-13T08:26:15;1.70;99.90
9699;DHT22;10089;47.876;8.346;2022-11-13T09:28:34;4.60;99.90
9699;DHT22;10089;47.876;8.346;2022-11-13T09:31:03;4.30;99.90
9699;DHT22;10089;47.876;8.346;2022-11-13T09:33:29;3.90;99.90
9699;DHT22;10089;47.876;8.346;2022-11-13T09:35:55;3.10;99.90
9699;DHT22;10089;47.876;8.346;2022-11-13T09:38:20;3.30;99.90
9699;DHT22;10089;47.876;8.346;2022-11-13T09:40:48;3.60;99.90
9699;DHT22;10089;47.876;8.346;2022-11-13T09:46:01;3.20;99.90
9699;DHT22;10089;47.876;8.346;2022-11-13T09:48:35;3.00;99.90
9699;DHT22;10089;47.876;8.346;2022-11-13T09:51:03;3.50;99.90
9699;DHT22;10089;47.876;8.346;2022-11-13T09:53:36;3.70;99.90
9699;DHT22;10089;47.876;8.346;2022-11-13T09:58:45;3.50;99.90
9699;DHT22;10089;47.876;8.346;2022-11-13T10:01:55;3.50;99.90
9699;DHT22;10089;47.876;8.346;2022-11-13T10:04:03;3.80;99.90
9699;DHT22;10089;47.876;8.346;2022-11-13T10:06:39;4.00;99.90
9699;DHT22;10089;47.876;8.346;2022-11-13T10:09:23;4.20;99.90
9699;DHT22;10089;47.876;8.346;2022-11-13T10:11:54;4.00;99.90
9699;DHT22;10089;47.876;8.346;2022-11-13T10:14:24;4.30;99.90
9699;DHT22;10089;47.876;8.346;2022-11-13T10:16:53;4.60;99.90
9699;DHT22;10089;47.876;8.346;2022-11-13T10:19:25;4.60;99.90
9699;DHT22;10089;47.876;8.346;2022-11-13T10:21:55;5.00;99.90
9699;DHT22;10089;47.876;8.346;2022-11-13T10:24:27;5.60;99.90
9699;DHT22;10089;47.876;8.346;2022-11-13T10:26:57;5.30;99.90
9699;DHT22;10089;47.876;8.346;2022-11-13T10:29:23;4.80;99.90
9699;DHT22;10089;47.876;8.346;2022-11-13T10:31:51;4.70;99.90
9699;DHT22;10089;47.876;8.346;2022-11-13T10:34:17;4.30;99.90
9699;DHT22;10089;47.876;8.346;2022-11-13T10:39:11;4.60;99.90
9699;DHT22;10089;47.876;8.346;2022-11-13T10:44:22;4.00;99.90
9699;DHT22;10089;47.876;8.346;2022-11-13T10:46:48;4.10;99.90
9699;DHT22;10089;47.876;8.346;2022-11-13T10:49:18;4.40;99.90
9699;DHT22;10089;47.876;8.346;2022-11-13T10:51:52;4.40;99.90
9699;DHT22;10089;47.876;8.346;2022-11-13T10:54:28;4.50;99.90
9699;DHT22;10089;47.876;8.346;2022-11-13T10:57:01;4.30;99.90
9699;DHT22;10089;47.876;8.346;2022-11-13T10:59:36;3.70;99.90
9699;DHT22;10089;47.876;8.346;2022-11-13T11:04:41;3.90;99.90
9699;DHT22;10089;47.876;8.346;2022-11-13T11:07:13;4.30;99.90
9699;DHT22;10089;47.876;8.346;2022-11-13T11:09:39;4.40;99.90
9699;DHT22;10089;47.876;8.346;2022-11-13T11:12:11;4.30;99.90
9699;DHT22;10089;47.876;8.346;2022-11-13T11:20:15;4.50;99.90
9699;DHT22;10089;47.876;8.346;2022-11-13T11:22:41;4.60;99.90
9699;DHT22;10089;47.876;8.346;2022-11-13T11:25:14;4.50;99.90
9699;DHT22;10089;47.876;8.346;2022-11-13T11:27:47;4.30;99.90
9699;DHT22;10089;47.876;8.346;2022-11-13T11:32:46;4.30;99.90
9699;DHT22;10089;47.876;8.346;2022-11-13T11:35:20;4.50;99.90
9699;DHT22;10089;47.876;8.346;2022-11-13T11:40:33;4.00;99.90
9699;DHT22;10089;47.876;8.346;2022-11-13T11:45:45;4.30;99.90
9699;DHT22;10089;47.876;8.346;2022-11-13T11:48:12;4.40;99.90
9699;DHT22;10089;47.876;8.346;2022-11-13T11:50:42;4.50;99.90
9699;DHT22;10089;47.876;8.346;2022-11-13T11:53:15;4.40;99.90
9699;DHT22;10089;47.876;8.346;2022-11-13T12:03:50;4.10;99.90
9699;DHT22;10089;47.876;8.346;2022-11-13T12:12:08;3.90;99.90
9699;DHT22;10089;47.876;8.346;2022-11-13T12:14:37;3.70;99.90
9699;DHT22;10089;47.876;8.346;2022-11-13T12:17:09;3.60;99.90
9699;DHT22;10089;47.876;8.346;2022-11-13T12:22:16;4.20;99.90
9699;DHT22;10089;47.876;8.346;2022-11-13T12:29:57;3.70;99.90
9699;DHT22;10089;47.876;8.346;2022-11-13T12:33:10;4.10;99.90
9699;DHT22;10089;47.876;8.346;2022-11-13T12:35:15;3.90;99.90
9699;DHT22;10089;47.876;8.346;2022-11-13T12:37:45;4.20;99.90
9699;DHT22;10089;47.876;8.346;2022-11-13T12:40:14;4.40;99.90
9699;DHT22;10089;47.876;8.346;2022-11-13T12:42:45;4.60;99.90
9699;DHT22;10089;47.876;8.346;2022-11-13T12:45:15;4.50;99.90
9699;DHT22;10089;47.876;8.346;2022-11-13T12:47:44;4.40;99.90
9699;DHT22;10089;47.876;8.346;2022-11-13T12:52:56;4.60;99.90
9699;DHT22;10089;47.876;8.346;2022-11-13T12:55:26;4.60;99.90
9699;DHT22;10089;47.876;8.346;2022-11-13T12:57:52;4.80;99.90
9699;DHT22;10089;47.876;8.346;2022-11-13T13:00:22;4.50;99.90
9699;DHT22;10089;47.876;8.346;2022-11-13T13:02:52;4.60;99.90
9699;DHT22;10089;47.876;8.346;2022-11-13T13:16:06;4.50;99.90
9699;DHT22;10089;47.876;8.346;2022-11-13T13:18:36;4.00;99.90
9699;DHT22;10089;47.876;8.346;2022-11-13T13:21:13;4.30;99.90
9699;DHT22;10089;47.876;8.346;2022-11-13T13:23:40;4.40;99.90
9699;DHT22;10089;47.876;8.346;2022-11-13T13:28:36;4.60;99.90
9699;DHT22;10089;47.876;8.346;2022-11-13T13:31:18;4.90;99.90
9699;DHT22;10089;47.876;8.346;2022-11-13T13:39:27;4.20;99.90
9699;DHT22;10089;47.876;8.346;2022-11-13T13:42:01;4.30;99.90
9699;DHT22;10089;47.876;8.346;2022-11-13T13:47:02;3.90;99.90
9699;DHT22;10089;47.876;8.346;2022-11-13T13:49:30;4.00;99.90
9699;DHT22;10089;47.876;8.346;2022-11-13T13:51:56;3.70;99.90
9699;DHT22;10089;47.876;8.346;2022-11-13T13:54:27;3.70;99.90
9699;DHT22;10089;47.876;8.346;2022-11-13T13:56:54;3.80;99.90
9699;DHT22;10089;47.876;8.346;2022-11-13T14:01:57;3.80;99.90
9699;DHT22;10089;47.876;8.346;2022-11-13T14:04:23;3.90;99.90
9699;DHT22;10089;47.876;8.346;2022-11-13T14:06:50;3.70;99.90
9699;DHT22;10089;47.876;8.346;2022-11-13T14:09:17;3.90;99.90
9699;DHT22;10089;47.876;8.346;2022-11-13T14:11:43;4.00;99.90
9699;DHT22;10089;47.876;8.346;2022-11-13T14:14:10;3.90;99.90
9699;DHT22;10089;47.876;8.346;2022-11-13T14:16:47;4.10;99.90
9699;DHT22;10089;47.876;8.346;2022-11-13T14:19:12;4.20;99.90
9699;DHT22;10089;47.876;8.346;2022-11-13T14:21:38;4.20;99.90
9699;DHT22;10089;47.876;8.346;2022-11-13T14:24:04;4.10;99.90
9699;DHT22;10089;47.876;8.346;2022-11-13T14:26:29;3.80;99.90
9699;DHT22;10089;47.876;8.346;2022-11-13T14:28:59;3.80;99.90
9699;DHT22;10089;47.876;8.346;2022-11-13T14:31:26;3.70;99.90
9699;DHT22;10089;47.876;8.346;2022-11-13T14:33:54;3.70;99.90
9699;DHT22;10089;47.876;8.346;2022-11-13T14:36:30;3.80;99.90
9699;DHT22;10089;47.876;8.346;2022-11-13T14:39:01;4.00;99.90
9699;DHT22;10089;47.876;8.346;2022-11-13T14:44:00;3.60;99.90
9699;DHT22;10089;47.876;8.346;2022-11-13T14:46:29;3.70;99.90
9699;DHT22;10089;47.876;8.346;2022-11-13T14:48:55;3.80;99.90
9699;DHT22;10089;47.876;8.346;2022-11-13T15:14:39;4.10;99.90
9699;DHT22;10089;47.876;8.346;2022-11-13T15:20:08;4.30;99.90
9699;DHT22;10089;47.876;8.346;2022-11-13T15:22:46;4.20;99.90
9699;DHT22;10089;47.876;8.346;2022-11-13T15:25:20;4.50;99.90
9699;DHT22;10089;47.876;8.346;2022-11-13T15:27:51;4.00;99.90
9699;DHT22;10089;47.876;8.346;2022-11-13T15:30:20;3.90;99.90
9699;DHT22;10089;47.876;8.346;2022-11-13T15:32:46;4.20;99.90
9699;DHT22;10089;47.876;8.346;2022-11-13T15:35:15;3.80;99.90
9699;DHT22;10089;47.876;8.346;2022-11-13T15:37:41;3.80;99.90
9699;DHT22;10089;47.876;8.346;2022-11-13T15:40:07;3.60;99.90
9699;DHT22;10089;47.876;8.346;2022-11-13T15:42:42;3.30;99.90
9699;DHT22;10089;47.876;8.346;2022-11-13T15:48:11;5.30;99.90
9699;DHT22;10089;47.876;8.346;2022-11-13T15:53:39;3.50;99.90
9699;DHT22;10089;47.876;8.346;2022-11-13T15:56:07;3.00;99.90
9699;DHT22;10089;47.876;8.346;2022-11-13T15:58:35;3.20;99.90
9699;DHT22;10089;47.876;8.346;2022-11-13T16:01:01;3.50;99.90
9699;DHT22;10089;47.876;8.346;2022-11-13T16:03:26;3.00;99.90
9699;DHT22;10089;47.876;8.346;2022-11-13T16:05:56;2.90;99.90
9699;DHT22;10089;47.876;8.346;2022-11-13T16:08:25;2.90;99.90
9699;DHT22;10089;47.876;8.346;2022-11-13T16:10:51;3.60;99.90
9699;DHT22;10089;47.876;8.346;2022-11-13T16:13:19;2.80;99.90
9699;DHT22;10089;47.876;8.346;2022-11-13T16:15:45;4.50;99.90
9699;DHT22;10089;47.876;8.346;2022-11-13T16:18:23;2.60;99.90
9699;DHT22;10089;47.876;8.346;2022-11-13T16:20:50;2.70;99.90
9699;DHT22;10089;47.876;8.346;2022-11-13T16:23:16;2.60;99.90
9699;DHT22;10089;47.876;8.346;2022-11-13T16:25:42;2.70;99.90
9699;DHT22;10089;47.876;8.346;2022-11-13T16:28:14;2.80;99.90
9699;DHT22;10089;47.876;8.346;2022-11-13T16:30:41;2.90;99.90
9699;DHT22;10089;47.876;8.346;2022-11-13T16:33:07;3.00;99.90
9699;DHT22;10089;47.876;8.346;2022-11-13T16:35:33;2.80;99.90
9699;DHT22;10089;47.876;8.346;2022-11-13T16:37:59;3.00;99.90
9699;DHT22;10089;47.876;8.346;2022-11-13T16:40:25;3.00;99.90
9699;DHT22;10089;47.876;8.346;2022-11-13T16:42:50;2.90;99.90
9699;DHT22;10089;47.876;8.346;2022-11-13T16:45:16;2.90;99.90
9699;DHT22;10089;47.876;8.346;2022-11-13T16:47:42;3.00;99.90
9699;DHT22;10089;47.876;8.346;2022-11-13T16:50:16;3.00;99.90
9699;DHT22;10089;47.876;8.346;2022-11-13T16:52:42;3.00;99.90
9699;DHT22;10089;47.876;8.346;2022-11-13T16:55:07;2.90;99.90
9699;DHT22;10089;47.876;8.346;2022-11-13T16:57:33;2.90;99.90
9699;DHT22;10089;47.876;8.346;2022-11-13T17:00:00;2.90;99.90
9699;DHT22;10089;47.876;8.346;2022-11-13T17:02:30;3.00;99.90
9699;DHT22;10089;47.876;8.346;2022-11-13T17:04:56;2.90;99.90
9699;DHT22;10089;47.876;8.346;2022-11-13T17:07:21;2.90;99.90
9699;DHT22;10089;47.876;8.346;2022-11-13T17:09:47;2.80;99.90
9699;DHT22;10089;47.876;8.346;2022-11-13T17:12:12;2.70;99.90
9699;DHT22;10089;47.876;8.346;2022-11-13T17:14:38;2.70;99.90
9699;DHT22;10089;47.876;8.346;2022-11-13T17:17:04;2.70;99.90
9699;DHT22;10089;47.876;8.346;2022-11-13T17:19:30;2.50;99.90
9699;DHT22;10089;47.876;8.346;2022-11-13T17:21:56;2.60;99.90
9699;DHT22;10089;47.876;8.346;2022-11-13T17:24:21;2.60;99.90
9699;DHT22;10089;47.876;8.346;2022-11-13T17:26:47;2.60;99.90
9699;DHT22;10089;47.876;8.346;2022-11-13T17:29:13;2.70;99.90
9699;DHT22;10089;47.876;8.346;2022-11-13T17:31:39;2.70;99.90
9699;DHT22;10089;47.876;8.346;2022-11-13T17:34:06;2.60;99.90
9699;DHT22;10089;47.876;8.346;2022-11-13T17:36:32;2.60;99.90
9699;DHT22;10089;47.876;8.346;2022-11-13T17:38:57;2.60;99.90
9699;DHT22;10089;47.876;8.346;2022-11-13T17:41:23;2.60;99.90
9699;DHT22;10089;47.876;8.346;2022-11-13T17:43:49;2.60;99.90
9699;DHT22;10089;47.876;8.346;2022-11-13T17:46:15;2.60;99.90
9699;DHT22;10089;47.876;8.346;2022-11-13T17:48:41;2.80;99.90
9699;DHT22;10089;47.876;8.346;2022-11-13T17:51:09;2.70;99.90
9699;DHT22;10089;47.876;8.346;2022-11-13T17:53:35;2.60;99.90
9699;DHT22;10089;47.876;8.346;2022-11-13T17:56:02;2.80;99.90
9699;DHT22;10089;47.876;8.346;2022-11-13T17:58:27;2.70;99.90
9699;DHT22;10089;47.876;8.346;2022-11-13T18:00:53;2.60;99.90
9699;DHT22;10089;47.876;8.346;2022-11-13T18:03:26;2.60;99.90
9699;DHT22;10089;47.876;8.346;2022-11-13T18:05:53;2.50;99.90
9699;DHT22;10089;47.876;8.346;2022-11-13T18:08:18;2.50;99.90
9699;DHT22;10089;47.876;8.346;2022-11-13T19:46:10;2.40;99.90
9699;DHT22;10089;47.876;8.346;2022-11-13T19:48:40;2.40;99.90
9699;DHT22;10089;47.876;8.346;2022-11-13T19:51:17;2.40;99.90
9699;DHT22;10089;47.876;8.346;2022-11-13T19:53:46;2.40;99.90
9699;DHT22;10089;47.876;8.346;2022-11-13T19:56:18;2.70;99.90
9699;DHT22;10089;47.876;8.346;2022-11-13T19:58:49;2.60;99.90
9699;DHT22;10089;47.876;8.346;2022-11-13T20:01:23;2.60;99.90
9699;DHT22;10089;47.876;8.346;2022-11-13T20:04:11;2.60;99.90
9699;DHT22;10089;47.876;8.346;2022-11-13T20:06:40;2.70;99.90
9699;DHT22;10089;47.876;8.346;2022-11-13T20:09:09;2.40;99.90
9699;DHT22;10089;47.876;8.346;2022-11-13T20:11:35;3.20;99.90
9699;DHT22;10089;47.876;8.346;2022-11-13T20:14:01;2.50;99.90
9699;DHT22;10089;47.876;8.346;2022-11-13T20:16:27;2.70;99.90
9699;DHT22;10089;47.876;8.346;2022-11-13T20:22:06;2.70;99.90
9699;DHT22;10089;47.876;8.346;2022-11-13T20:24:32;2.60;99.90
9699;DHT22;10089;47.876;8.346;2022-11-13T20:27:01;2.70;99.90
9699;DHT22;10089;47.876;8.346;2022-11-13T20:29:34;2.70;99.90
9699;DHT22;10089;47.876;8.346;2022-11-13T20:35:26;3.00;99.90
9699;DHT22;10089;47.876;8.346;2022-11-13T20:38:06;3.60;99.90